createdAt,value
2022-10-19T00:00:27.470Z,71.5
2022-10-19T00:20:27.465Z,71.5
2022-10-19T00:40:27.422Z,71.4
2022-10-19T01:00:27.383Z,71.3
2022-10-19T01:20:27.371Z,71.2
2022-10-19T01:40:27.375Z,71.1
2022-10-19T02:20:27.323Z,70.8
2022-10-19T02:40:27.313Z,70.7
2022-10-19T03:00:27.245Z,70.6
2022-10-19T03:20:27.245Z,70.5
2022-10-19T03:40:27.195Z,70.5
2022-10-19T04:00:27.149Z,70.5
2022-10-19T04:20:27.168Z,70.4
2022-10-19T04:40:27.111Z,70.3
2022-10-19T05:00:27.111Z,70.2
2022-10-19T05:20:27.091Z,70.0
2022-10-19T05:40:27.481Z,69.8
2022-10-19T06:00:27.025Z,69.8
2022-10-19T06:20:27.022Z,69.7
2022-10-19T06:40:26.973Z,69.8
2022-10-19T07:00:27.094Z,69.8
2022-10-19T07:20:26.943Z,69.6
2022-10-19T07:40:26.912Z,69.6
2022-10-19T08:00:26.860Z,69.6
2022-10-19T08:20:26.855Z,69.7
2022-10-19T08:40:26.801Z,70.0
2022-10-19T09:00:26.787Z,70.0
2022-10-19T09:20:26.797Z,70.0
2022-10-19T09:40:26.739Z,70.0
2022-10-19T10:00:26.733Z,69.9
2022-10-19T10:20:26.742Z,69.9
2022-10-19T10:40:26.697Z,69.8
2022-10-19T11:00:26.656Z,69.6
2022-10-19T11:20:26.615Z,69.5
2022-10-19T11:40:26.609Z,69.7
2022-10-19T12:00:26.569Z,69.8
2022-10-19T12:20:26.557Z,69.8
2022-10-19T12:40:26.532Z,69.8
2022-10-19T13:00:26.478Z,69.8
2022-10-19T13:20:26.494Z,69.6
2022-10-19T13:40:26.435Z,69.5
2022-10-19T14:00:26.427Z,69.6
2022-10-19T14:20:26.413Z,69.6
2022-10-19T14:40:26.400Z,69.8
2022-10-19T15:00:26.337Z,70.0
2022-10-19T15:20:26.310Z,70.2
2022-10-19T15:40:26.300Z,70.2
2022-10-19T16:00:26.271Z,70.1
2022-10-19T16:20:26.224Z,70.0
2022-10-19T16:40:26.204Z,69.9
2022-10-19T17:00:26.216Z,69.9
2022-10-19T17:20:26.154Z,69.9
2022-10-19T17:40:26.119Z,69.8
2022-10-19T18:00:26.122Z,69.7
2022-10-19T18:20:26.079Z,69.6
2022-10-19T18:40:26.082Z,69.5
2022-10-19T19:00:26.055Z,69.5
2022-10-19T19:20:26.031Z,69.5
2022-10-19T19:40:26.003Z,69.4
2022-10-19T20:00:25.992Z,69.4
2022-10-19T20:20:25.988Z,69.3
2022-10-19T20:40:25.942Z,69.3
2022-10-19T21:00:25.904Z,69.3
2022-10-19T21:20:25.930Z,69.3
2022-10-19T21:40:25.859Z,69.2
2022-10-19T22:00:25.786Z,69.1
2022-10-19T22:20:25.812Z,69.1
2022-10-19T22:40:25.747Z,69.1
2022-10-19T23:00:25.735Z,69.0
2022-10-19T23:20:25.718Z,69.0
2022-10-19T23:40:25.661Z,68.9
